Terminal Aerodrome Forecast
Issued by NWS Wichita, KS

Home | Current Version | Previous Version | Text Only | Print | Product List | Glossary On
Versions: 1 2 3 4 5 6 7 8 9 10 11 12 13 14 15 16 17 18 19 20 21 22 23 24 25 26 27 28 29 30
000
FTUS43 KICT 211121
TAFICT
TAF
KICT 211121Z 2112/2212 17017G24KT P6SM SCT150 WS020/20045KT
     FM211500 18023G32KT P6SM SCT150
     FM220100 17018G25KT P6SM SCT100
     FM220800 18013KT P6SM SCT100
     FM221100 25009KT P6SM SCT060=

USA.gov is the U.S. government's official web portal to all federal, state and local government web resources and services.